sensor_id;sensor_type;location;lat;lon;timestamp;P1;durP1;ratioP1;P2;durP2;ratioP2
59728;SDS011;45588;51.598;5.618;2022-10-26T00:00:51;7.85;;;5.90;;
59728;SDS011;45588;51.598;5.618;2022-10-26T00:03:16;10.05;;;5.80;;
59728;SDS011;45588;51.598;5.618;2022-10-26T00:05:42;9.00;;;6.95;;
59728;SDS011;45588;51.598;5.618;2022-10-26T00:08:07;7.93;;;6.10;;
59728;SDS011;45588;51.598;5.618;2022-10-26T00:10:34;9.73;;;6.20;;
59728;SDS011;45588;51.598;5.618;2022-10-26T00:13:00;12.85;;;6.57;;
59728;SDS011;45588;51.598;5.618;2022-10-26T00:15:26;14.25;;;11.48;;
59728;SDS011;45588;51.598;5.618;2022-10-26T00:17:52;11.32;;;6.80;;
59728;SDS011;45588;51.598;5.618;2022-10-26T00:20:17;15.80;;;11.68;;
59728;SDS011;45588;51.598;5.618;2022-10-26T00:22:42;19.75;;;13.40;;
59728;SDS011;45588;51.598;5.618;2022-10-26T00:25:08;14.88;;;6.72;;
59728;SDS011;45588;51.598;5.618;2022-10-26T00:27:33;16.77;;;12.70;;
59728;SDS011;45588;51.598;5.618;2022-10-26T00:29:59;11.45;;;6.10;;
59728;SDS011;45588;51.598;5.618;2022-10-26T00:32:25;11.82;;;8.57;;
59728;SDS011;45588;51.598;5.618;2022-10-26T00:34:51;14.32;;;9.80;;
59728;SDS011;45588;51.598;5.618;2022-10-26T00:37:16;10.20;;;6.15;;
59728;SDS011;45588;51.598;5.618;2022-10-26T00:39:41;12.90;;;6.68;;
59728;SDS011;45588;51.598;5.618;2022-10-26T00:42:10;7.93;;;5.55;;
59728;SDS011;45588;51.598;5.618;2022-10-26T00:47:08;11.23;;;6.68;;
59728;SDS011;45588;51.598;5.618;2022-10-26T00:49:37;13.07;;;11.80;;
59728;SDS011;45588;51.598;5.618;2022-10-26T00:52:02;10.57;;;6.32;;
59728;SDS011;45588;51.598;5.618;2022-10-26T00:54:28;17.30;;;9.00;;
59728;SDS011;45588;51.598;5.618;2022-10-26T00:56:53;11.73;;;5.18;;
59728;SDS011;45588;51.598;5.618;2022-10-26T00:59:19;7.53;;;5.32;;
59728;SDS011;45588;51.598;5.618;2022-10-26T01:01:46;11.25;;;9.32;;
59728;SDS011;45588;51.598;5.618;2022-10-26T01:04:13;9.75;;;4.43;;
59728;SDS011;45588;51.598;5.618;2022-10-26T01:06:40;16.13;;;5.50;;
59728;SDS011;45588;51.598;5.618;2022-10-26T01:09:07;11.25;;;5.45;;
59728;SDS011;45588;51.598;5.618;2022-10-26T01:11:34;13.40;;;9.30;;
59728;SDS011;45588;51.598;5.618;2022-10-26T01:13:59;7.88;;;4.88;;
59728;SDS011;45588;51.598;5.618;2022-10-26T01:16:37;8.57;;;5.13;;
59728;SDS011;45588;51.598;5.618;2022-10-26T01:19:51;12.07;;;10.05;;
59728;SDS011;45588;51.598;5.618;2022-10-26T01:22:55;12.20;;;9.88;;
59728;SDS011;45588;51.598;5.618;2022-10-26T01:25:14;10.02;;;5.03;;
59728;SDS011;45588;51.598;5.618;2022-10-26T01:27:54;6.63;;;5.28;;
59728;SDS011;45588;51.598;5.618;2022-10-26T01:30:30;11.88;;;6.18;;
59728;SDS011;45588;51.598;5.618;2022-10-26T01:36:08;13.75;;;10.27;;
59728;SDS011;45588;51.598;5.618;2022-10-26T01:38:39;13.98;;;11.20;;
59728;SDS011;45588;51.598;5.618;2022-10-26T01:41:20;12.82;;;8.02;;
59728;SDS011;45588;51.598;5.618;2022-10-26T01:44:00;10.10;;;6.20;;
59728;SDS011;45588;51.598;5.618;2022-10-26T01:46:29;13.02;;;6.55;;
59728;SDS011;45588;51.598;5.618;2022-10-26T01:49:00;15.75;;;6.82;;
59728;SDS011;45588;51.598;5.618;2022-10-26T01:51:31;15.13;;;12.85;;
59728;SDS011;45588;51.598;5.618;2022-10-26T01:53:58;15.90;;;11.80;;
59728;SDS011;45588;51.598;5.618;2022-10-26T01:56:28;11.63;;;7.35;;
59728;SDS011;45588;51.598;5.618;2022-10-26T02:01:43;13.25;;;7.55;;
59728;SDS011;45588;51.598;5.618;2022-10-26T02:04:18;11.63;;;7.57;;
59728;SDS011;45588;51.598;5.618;2022-10-26T02:09:33;15.90;;;13.48;;
59728;SDS011;45588;51.598;5.618;2022-10-26T02:12:01;13.88;;;8.85;;
59728;SDS011;45588;51.598;5.618;2022-10-26T02:14:35;13.23;;;8.43;;
59728;SDS011;45588;51.598;5.618;2022-10-26T02:17:48;10.75;;;8.15;;
59728;SDS011;45588;51.598;5.618;2022-10-26T02:20:01;12.73;;;11.52;;
59728;SDS011;45588;51.598;5.618;2022-10-26T02:22:34;13.82;;;10.30;;
59728;SDS011;45588;51.598;5.618;2022-10-26T02:25:06;15.40;;;8.18;;
59728;SDS011;45588;51.598;5.618;2022-10-26T02:27:36;15.57;;;7.75;;
59728;SDS011;45588;51.598;5.618;2022-10-26T02:30:07;14.05;;;7.22;;
59728;SDS011;45588;51.598;5.618;2022-10-26T02:32:35;16.67;;;12.95;;
59728;SDS011;45588;51.598;5.618;2022-10-26T02:35:04;15.15;;;7.22;;
59728;SDS011;45588;51.598;5.618;2022-10-26T02:37:30;8.82;;;6.90;;
59728;SDS011;45588;51.598;5.618;2022-10-26T02:39:58;11.13;;;6.15;;
59728;SDS011;45588;51.598;5.618;2022-10-26T02:42:27;13.73;;;11.30;;
59728;SDS011;45588;51.598;5.618;2022-10-26T02:44:53;13.15;;;10.98;;
59728;SDS011;45588;51.598;5.618;2022-10-26T02:47:21;13.95;;;11.13;;
59728;SDS011;45588;51.598;5.618;2022-10-26T02:49:48;9.98;;;5.72;;
59728;SDS011;45588;51.598;5.618;2022-10-26T02:52:26;14.32;;;7.53;;
59728;SDS011;45588;51.598;5.618;2022-10-26T02:54:58;14.98;;;10.30;;
59728;SDS011;45588;51.598;5.618;2022-10-26T02:57:32;11.40;;;5.13;;
59728;SDS011;45588;51.598;5.618;2022-10-26T03:00:09;6.97;;;5.10;;
59728;SDS011;45588;51.598;5.618;2022-10-26T03:02:37;9.98;;;5.00;;
59728;SDS011;45588;51.598;5.618;2022-10-26T03:05:06;7.20;;;5.30;;
59728;SDS011;45588;51.598;5.618;2022-10-26T03:07:37;14.48;;;5.93;;
59728;SDS011;45588;51.598;5.618;2022-10-26T03:10:02;7.63;;;5.07;;
59728;SDS011;45588;51.598;5.618;2022-10-26T03:12:28;13.68;;;8.73;;
59728;SDS011;45588;51.598;5.618;2022-10-26T03:14:53;12.88;;;8.35;;
59728;SDS011;45588;51.598;5.618;2022-10-26T03:17:18;9.00;;;4.75;;
59728;SDS011;45588;51.598;5.618;2022-10-26T03:19:43;9.60;;;5.47;;
59728;SDS011;45588;51.598;5.618;2022-10-26T03:22:09;9.05;;;5.63;;
59728;SDS011;45588;51.598;5.618;2022-10-26T03:24:34;6.28;;;4.72;;
59728;SDS011;45588;51.598;5.618;2022-10-26T03:26:59;11.35;;;9.13;;
59728;SDS011;45588;51.598;5.618;2022-10-26T03:29:24;12.90;;;5.47;;
59728;SDS011;45588;51.598;5.618;2022-10-26T03:31:50;8.10;;;5.28;;
59728;SDS011;45588;51.598;5.618;2022-10-26T03:34:18;9.43;;;5.13;;
59728;SDS011;45588;51.598;5.618;2022-10-26T03:36:44;7.78;;;4.57;;
59728;SDS011;45588;51.598;5.618;2022-10-26T03:39:09;12.82;;;9.05;;
59728;SDS011;45588;51.598;5.618;2022-10-26T03:41:34;15.77;;;5.55;;
59728;SDS011;45588;51.598;5.618;2022-10-26T03:44:00;11.23;;;5.30;;
59728;SDS011;45588;51.598;5.618;2022-10-26T03:46:25;12.15;;;5.00;;
59728;SDS011;45588;51.598;5.618;2022-10-26T03:48:50;9.45;;;7.65;;
59728;SDS011;45588;51.598;5.618;2022-10-26T03:51:15;9.32;;;5.63;;
59728;SDS011;45588;51.598;5.618;2022-10-26T03:53:41;13.57;;;8.98;;
59728;SDS011;45588;51.598;5.618;2022-10-26T03:56:06;9.05;;;4.75;;
59728;SDS011;45588;51.598;5.618;2022-10-26T03:58:32;11.88;;;5.03;;
59728;SDS011;45588;51.598;5.618;2022-10-26T04:00:57;12.43;;;8.73;;
59728;SDS011;45588;51.598;5.618;2022-10-26T04:03:22;9.48;;;5.07;;
59728;SDS011;45588;51.598;5.618;2022-10-26T04:05:47;7.90;;;5.22;;
59728;SDS011;45588;51.598;5.618;2022-10-26T04:08:13;10.73;;;5.97;;
59728;SDS011;45588;51.598;5.618;2022-10-26T04:10:38;12.32;;;9.27;;
59728;SDS011;45588;51.598;5.618;2022-10-26T04:13:03;10.00;;;4.50;;
59728;SDS011;45588;51.598;5.618;2022-10-26T04:15:29;10.13;;;5.07;;
59728;SDS011;45588;51.598;5.618;2022-10-26T04:17:57;8.23;;;5.05;;
59728;SDS011;45588;51.598;5.618;2022-10-26T04:20:24;11.38;;;5.65;;
59728;SDS011;45588;51.598;5.618;2022-10-26T04:23:00;7.28;;;4.88;;
59728;SDS011;45588;51.598;5.618;2022-10-26T04:25:28;11.23;;;4.70;;
59728;SDS011;45588;51.598;5.618;2022-10-26T04:27:54;7.45;;;4.88;;
59728;SDS011;45588;51.598;5.618;2022-10-26T04:30:20;18.52;;;10.35;;
59728;SDS011;45588;51.598;5.618;2022-10-26T04:32:45;9.43;;;4.90;;
59728;SDS011;45588;51.598;5.618;2022-10-26T04:35:10;16.75;;;8.10;;
59728;SDS011;45588;51.598;5.618;2022-10-26T04:37:36;10.93;;;5.65;;
59728;SDS011;45588;51.598;5.618;2022-10-26T04:40:01;9.93;;;5.40;;
59728;SDS011;45588;51.598;5.618;2022-10-26T04:42:27;9.27;;;5.35;;
59728;SDS011;45588;51.598;5.618;2022-10-26T04:44:52;12.73;;;9.15;;
59728;SDS011;45588;51.598;5.618;2022-10-26T04:47:17;10.65;;;6.40;;
59728;SDS011;45588;51.598;5.618;2022-10-26T04:49:43;7.70;;;6.55;;
59728;SDS011;45588;51.598;5.618;2022-10-26T04:52:08;9.73;;;5.22;;
59728;SDS011;45588;51.598;5.618;2022-10-26T04:54:33;11.85;;;5.57;;
59728;SDS011;45588;51.598;5.618;2022-10-26T04:56:58;16.20;;;9.98;;
59728;SDS011;45588;51.598;5.618;2022-10-26T04:59:24;12.32;;;8.25;;
59728;SDS011;45588;51.598;5.618;2022-10-26T05:01:50;10.73;;;5.43;;
59728;SDS011;45588;51.598;5.618;2022-10-26T05:04:15;13.60;;;7.13;;
59728;SDS011;45588;51.598;5.618;2022-10-26T05:06:40;12.07;;;7.60;;
59728;SDS011;45588;51.598;5.618;2022-10-26T05:09:06;10.48;;;5.57;;
59728;SDS011;45588;51.598;5.618;2022-10-26T05:11:31;11.32;;;5.13;;
59728;SDS011;45588;51.598;5.618;2022-10-26T05:13:56;10.55;;;5.10;;
59728;SDS011;45588;51.598;5.618;2022-10-26T05:16:21;10.05;;;7.47;;
59728;SDS011;45588;51.598;5.618;2022-10-26T05:18:47;10.25;;;8.38;;
59728;SDS011;45588;51.598;5.618;2022-10-26T05:21:13;10.00;;;6.60;;
59728;SDS011;45588;51.598;5.618;2022-10-26T05:23:43;11.95;;;6.68;;
59728;SDS011;45588;51.598;5.618;2022-10-26T05:26:09;8.20;;;4.57;;
59728;SDS011;45588;51.598;5.618;2022-10-26T05:28:34;9.50;;;4.95;;
59728;SDS011;45588;51.598;5.618;2022-10-26T05:30:59;14.98;;;5.05;;
59728;SDS011;45588;51.598;5.618;2022-10-26T05:33:24;12.40;;;7.72;;
59728;SDS011;45588;51.598;5.618;2022-10-26T05:35:52;7.57;;;4.43;;
59728;SDS011;45588;51.598;5.618;2022-10-26T05:38:18;8.57;;;6.20;;
59728;SDS011;45588;51.598;5.618;2022-10-26T05:40:50;9.80;;;6.78;;
59728;SDS011;45588;51.598;5.618;2022-10-26T05:43:17;9.23;;;6.53;;
59728;SDS011;45588;51.598;5.618;2022-10-26T05:45:44;9.70;;;4.53;;
59728;SDS011;45588;51.598;5.618;2022-10-26T05:48:09;8.77;;;6.75;;
59728;SDS011;45588;51.598;5.618;2022-10-26T05:50:35;9.63;;;5.97;;
59728;SDS011;45588;51.598;5.618;2022-10-26T05:53:00;9.13;;;5.78;;
59728;SDS011;45588;51.598;5.618;2022-10-26T05:55:26;11.43;;;7.03;;
59728;SDS011;45588;51.598;5.618;2022-10-26T05:57:52;9.40;;;4.07;;
59728;SDS011;45588;51.598;5.618;2022-10-26T06:00:18;8.95;;;4.47;;
59728;SDS011;45588;51.598;5.618;2022-10-26T06:02:57;7.80;;;5.82;;
59728;SDS011;45588;51.598;5.618;2022-10-26T06:05:33;11.07;;;4.53;;
59728;SDS011;45588;51.598;5.618;2022-10-26T06:08:01;8.32;;;5.65;;
59728;SDS011;45588;51.598;5.618;2022-10-26T06:10:27;11.27;;;5.57;;
59728;SDS011;45588;51.598;5.618;2022-10-26T06:12:52;10.30;;;3.85;;
59728;SDS011;45588;51.598;5.618;2022-10-26T06:15:19;6.25;;;3.75;;
59728;SDS011;45588;51.598;5.618;2022-10-26T06:18:02;6.43;;;3.90;;
59728;SDS011;45588;51.598;5.618;2022-10-26T06:26:14;10.30;;;5.68;;
59728;SDS011;45588;51.598;5.618;2022-10-26T06:29:09;9.23;;;4.18;;
59728;SDS011;45588;51.598;5.618;2022-10-26T06:31:44;8.18;;;4.28;;
59728;SDS011;45588;51.598;5.618;2022-10-26T06:34:11;6.63;;;3.58;;
59728;SDS011;45588;51.598;5.618;2022-10-26T06:36:39;6.65;;;4.00;;
59728;SDS011;45588;51.598;5.618;2022-10-26T06:39:06;10.73;;;6.55;;
59728;SDS011;45588;51.598;5.618;2022-10-26T06:41:35;10.50;;;6.68;;
59728;SDS011;45588;51.598;5.618;2022-10-26T06:44:02;8.18;;;5.50;;
59728;SDS011;45588;51.598;5.618;2022-10-26T06:46:42;11.60;;;4.68;;
59728;SDS011;45588;51.598;5.618;2022-10-26T06:52:30;15.07;;;5.30;;
59728;SDS011;45588;51.598;5.618;2022-10-26T06:57:40;11.13;;;6.95;;
59728;SDS011;45588;51.598;5.618;2022-10-26T07:02:39;6.53;;;4.45;;
59728;SDS011;45588;51.598;5.618;2022-10-26T07:05:04;13.27;;;6.63;;
59728;SDS011;45588;51.598;5.618;2022-10-26T07:07:34;8.38;;;7.35;;
59728;SDS011;45588;51.598;5.618;2022-10-26T07:10:05;12.75;;;8.73;;
59728;SDS011;45588;51.598;5.618;2022-10-26T07:12:31;11.90;;;6.30;;
59728;SDS011;45588;51.598;5.618;2022-10-26T07:14:56;7.40;;;4.97;;
59728;SDS011;45588;51.598;5.618;2022-10-26T07:17:21;8.98;;;4.78;;
59728;SDS011;45588;51.598;5.618;2022-10-26T07:19:47;9.30;;;7.97;;
59728;SDS011;45588;51.598;5.618;2022-10-26T07:22:13;7.88;;;6.28;;
59728;SDS011;45588;51.598;5.618;2022-10-26T07:24:38;11.35;;;6.68;;
59728;SDS011;45588;51.598;5.618;2022-10-26T07:27:03;9.88;;;5.05;;
59728;SDS011;45588;51.598;5.618;2022-10-26T07:29:29;8.15;;;6.85;;
59728;SDS011;45588;51.598;5.618;2022-10-26T07:31:54;9.25;;;6.22;;
59728;SDS011;45588;51.598;5.618;2022-10-26T07:34:19;9.38;;;4.35;;
59728;SDS011;45588;51.598;5.618;2022-10-26T07:36:45;10.68;;;4.95;;
59728;SDS011;45588;51.598;5.618;2022-10-26T07:39:10;8.93;;;6.10;;
59728;SDS011;45588;51.598;5.618;2022-10-26T07:41:35;11.13;;;5.97;;
59728;SDS011;45588;51.598;5.618;2022-10-26T07:44:01;10.52;;;6.72;;
59728;SDS011;45588;51.598;5.618;2022-10-26T07:46:26;8.38;;;5.43;;
59728;SDS011;45588;51.598;5.618;2022-10-26T07:48:52;8.05;;;5.78;;
59728;SDS011;45588;51.598;5.618;2022-10-26T07:51:17;8.02;;;5.43;;
59728;SDS011;45588;51.598;5.618;2022-10-26T07:53:43;7.53;;;5.57;;
59728;SDS011;45588;51.598;5.618;2022-10-26T07:56:08;6.80;;;4.18;;
59728;SDS011;45588;51.598;5.618;2022-10-26T07:58:34;8.82;;;5.25;;
59728;SDS011;45588;51.598;5.618;2022-10-26T08:01:07;12.10;;;5.68;;
59728;SDS011;45588;51.598;5.618;2022-10-26T08:03:34;10.90;;;5.38;;
59728;SDS011;45588;51.598;5.618;2022-10-26T08:05:59;10.35;;;6.80;;
59728;SDS011;45588;51.598;5.618;2022-10-26T08:08:24;9.50;;;5.25;;
59728;SDS011;45588;51.598;5.618;2022-10-26T08:10:50;8.93;;;5.47;;
59728;SDS011;45588;51.598;5.618;2022-10-26T08:13:16;9.27;;;4.97;;
59728;SDS011;45588;51.598;5.618;2022-10-26T08:15:41;7.50;;;5.20;;
59728;SDS011;45588;51.598;5.618;2022-10-26T08:18:07;10.10;;;5.68;;
59728;SDS011;45588;51.598;5.618;2022-10-26T08:20:32;9.57;;;5.90;;
59728;SDS011;45588;51.598;5.618;2022-10-26T08:22:58;10.02;;;5.68;;
59728;SDS011;45588;51.598;5.618;2022-10-26T08:25:25;6.80;;;5.13;;
59728;SDS011;45588;51.598;5.618;2022-10-26T08:27:50;9.20;;;6.30;;
59728;SDS011;45588;51.598;5.618;2022-10-26T08:30:16;7.75;;;5.30;;
59728;SDS011;45588;51.598;5.618;2022-10-26T08:32:41;9.13;;;5.85;;
59728;SDS011;45588;51.598;5.618;2022-10-26T08:35:07;6.85;;;4.70;;
59728;SDS011;45588;51.598;5.618;2022-10-26T08:37:33;10.48;;;5.40;;
59728;SDS011;45588;51.598;5.618;2022-10-26T08:39:58;11.40;;;6.00;;
59728;SDS011;45588;51.598;5.618;2022-10-26T08:42:26;7.93;;;5.10;;
59728;SDS011;45588;51.598;5.618;2022-10-26T08:45:01;10.00;;;5.88;;
59728;SDS011;45588;51.598;5.618;2022-10-26T08:47:33;5.35;;;4.80;;
59728;SDS011;45588;51.598;5.618;2022-10-26T08:52:49;6.07;;;3.10;;
59728;SDS011;45588;51.598;5.618;2022-10-26T08:55:30;7.00;;;5.10;;
59728;SDS011;45588;51.598;5.618;2022-10-26T08:58:02;8.90;;;4.22;;
59728;SDS011;45588;51.598;5.618;2022-10-26T09:00:31;5.97;;;3.53;;
59728;SDS011;45588;51.598;5.618;2022-10-26T09:02:57;7.20;;;3.60;;
59728;SDS011;45588;51.598;5.618;2022-10-26T09:05:26;6.78;;;3.58;;
59728;SDS011;45588;51.598;5.618;2022-10-26T09:10:52;5.97;;;3.85;;
59728;SDS011;45588;51.598;5.618;2022-10-26T09:16:29;7.32;;;3.40;;
59728;SDS011;45588;51.598;5.618;2022-10-26T09:19:09;5.90;;;2.95;;
59728;SDS011;45588;51.598;5.618;2022-10-26T09:24:31;8.40;;;3.42;;
59728;SDS011;45588;51.598;5.618;2022-10-26T09:27:05;7.20;;;3.13;;
59728;SDS011;45588;51.598;5.618;2022-10-26T09:29:38;9.52;;;4.03;;
59728;SDS011;45588;51.598;5.618;2022-10-26T09:32:08;8.45;;;3.65;;
59728;SDS011;45588;51.598;5.618;2022-10-26T09:34:49;6.65;;;3.42;;
59728;SDS011;45588;51.598;5.618;2022-10-26T09:37:22;6.53;;;3.25;;
59728;SDS011;45588;51.598;5.618;2022-10-26T09:42:38;8.50;;;3.17;;
59728;SDS011;45588;51.598;5.618;2022-10-26T09:45:19;5.32;;;3.33;;
59728;SDS011;45588;51.598;5.618;2022-10-26T09:47:50;5.80;;;2.80;;
59728;SDS011;45588;51.598;5.618;2022-10-26T09:50:19;6.93;;;3.25;;
59728;SDS011;45588;51.598;5.618;2022-10-26T09:52:52;6.93;;;3.53;;
59728;SDS011;45588;51.598;5.618;2022-10-26T09:55:17;5.45;;;3.33;;
59728;SDS011;45588;51.598;5.618;2022-10-26T09:57:45;8.00;;;3.30;;
59728;SDS011;45588;51.598;5.618;2022-10-26T10:00:14;6.97;;;3.45;;
59728;SDS011;45588;51.598;5.618;2022-10-26T10:02:49;8.88;;;3.28;;
59728;SDS011;45588;51.598;5.618;2022-10-26T10:05:19;5.72;;;3.28;;
59728;SDS011;45588;51.598;5.618;2022-10-26T10:07:45;9.77;;;3.65;;
59728;SDS011;45588;51.598;5.618;2022-10-26T10:10:22;5.63;;;3.08;;
59728;SDS011;45588;51.598;5.618;2022-10-26T10:12:48;5.82;;;3.35;;
59728;SDS011;45588;51.598;5.618;2022-10-26T10:17:47;8.60;;;3.50;;
59728;SDS011;45588;51.598;5.618;2022-10-26T10:20:17;8.75;;;2.92;;
59728;SDS011;45588;51.598;5.618;2022-10-26T10:22:55;6.18;;;3.38;;
59728;SDS011;45588;51.598;5.618;2022-10-26T10:25:26;9.23;;;3.47;;
59728;SDS011;45588;51.598;5.618;2022-10-26T10:27:52;11.05;;;3.30;;
59728;SDS011;45588;51.598;5.618;2022-10-26T10:30:19;6.13;;;3.30;;
59728;SDS011;45588;51.598;5.618;2022-10-26T10:33:11;7.22;;;3.08;;
59728;SDS011;45588;51.598;5.618;2022-10-26T10:35:37;6.95;;;3.22;;
59728;SDS011;45588;51.598;5.618;2022-10-26T10:38:15;7.82;;;3.60;;
59728;SDS011;45588;51.598;5.618;2022-10-26T10:40:49;8.00;;;3.40;;
59728;SDS011;45588;51.598;5.618;2022-10-26T10:43:17;5.65;;;3.00;;
59728;SDS011;45588;51.598;5.618;2022-10-26T10:45:48;4.70;;;2.92;;
59728;SDS011;45588;51.598;5.618;2022-10-26T10:50:52;7.45;;;3.05;;
59728;SDS011;45588;51.598;5.618;2022-10-26T10:53:24;5.45;;;3.30;;
59728;SDS011;45588;51.598;5.618;2022-10-26T10:58:47;7.13;;;2.78;;
59728;SDS011;45588;51.598;5.618;2022-10-26T11:01:37;10.27;;;3.35;;
59728;SDS011;45588;51.598;5.618;2022-10-26T11:04:13;6.47;;;3.10;;
59728;SDS011;45588;51.598;5.618;2022-10-26T11:06:53;6.82;;;2.83;;
59728;SDS011;45588;51.598;5.618;2022-10-26T11:09:24;6.35;;;3.15;;
59728;SDS011;45588;51.598;5.618;2022-10-26T11:11:53;9.43;;;3.78;;
59728;SDS011;45588;51.598;5.618;2022-10-26T11:14:24;5.88;;;2.95;;
59728;SDS011;45588;51.598;5.618;2022-10-26T11:22:28;6.47;;;2.70;;
59728;SDS011;45588;51.598;5.618;2022-10-26T11:24:58;4.97;;;3.20;;
59728;SDS011;45588;51.598;5.618;2022-10-26T11:27:37;8.43;;;2.80;;
59728;SDS011;45588;51.598;5.618;2022-10-26T11:38:42;8.20;;;3.20;;
59728;SDS011;45588;51.598;5.618;2022-10-26T11:41:30;5.95;;;3.13;;
59728;SDS011;45588;51.598;5.618;2022-10-26T11:47:00;4.45;;;3.05;;
59728;SDS011;45588;51.598;5.618;2022-10-26T11:49:37;6.50;;;3.20;;
59728;SDS011;45588;51.598;5.618;2022-10-26T11:54:58;7.68;;;3.65;;
59728;SDS011;45588;51.598;5.618;2022-10-26T11:57:29;5.95;;;3.40;;
59728;SDS011;45588;51.598;5.618;2022-10-26T11:59:59;7.13;;;3.30;;
59728;SDS011;45588;51.598;5.618;2022-10-26T12:02:28;5.65;;;3.35;;
59728;SDS011;45588;51.598;5.618;2022-10-26T12:05:02;4.85;;;3.17;;
59728;SDS011;45588;51.598;5.618;2022-10-26T12:07:42;7.47;;;3.25;;
59728;SDS011;45588;51.598;5.618;2022-10-26T12:10:18;6.67;;;2.93;;
59728;SDS011;45588;51.598;5.618;2022-10-26T12:12:55;5.28;;;3.05;;
59728;SDS011;45588;51.598;5.618;2022-10-26T12:15:47;9.75;;;2.90;;
59728;SDS011;45588;51.598;5.618;2022-10-26T12:18:22;4.85;;;3.10;;
59728;SDS011;45588;51.598;5.618;2022-10-26T12:20:58;5.68;;;2.38;;
59728;SDS011;45588;51.598;5.618;2022-10-26T12:23:31;6.78;;;2.65;;
59728;SDS011;45588;51.598;5.618;2022-10-26T12:33:57;6.85;;;2.80;;
59728;SDS011;45588;51.598;5.618;2022-10-26T12:42:08;6.00;;;2.85;;
59728;SDS011;45588;51.598;5.618;2022-10-26T12:50:18;7.53;;;2.88;;
59728;SDS011;45588;51.598;5.618;2022-10-26T12:52:47;7.70;;;2.60;;
59728;SDS011;45588;51.598;5.618;2022-10-26T12:58:26;4.97;;;2.20;;
59728;SDS011;45588;51.598;5.618;2022-10-26T13:06:44;4.22;;;2.35;;
59728;SDS011;45588;51.598;5.618;2022-10-26T13:09:22;5.00;;;2.53;;
59728;SDS011;45588;51.598;5.618;2022-10-26T13:11:52;5.13;;;2.40;;
59728;SDS011;45588;51.598;5.618;2022-10-26T13:14:24;8.13;;;2.58;;
59728;SDS011;45588;51.598;5.618;2022-10-26T13:16:55;7.57;;;2.40;;
59728;SDS011;45588;51.598;5.618;2022-10-26T13:21:57;3.75;;;2.08;;
59728;SDS011;45588;51.598;5.618;2022-10-26T13:24:25;3.88;;;2.15;;
59728;SDS011;45588;51.598;5.618;2022-10-26T13:29:32;6.00;;;2.20;;
59728;SDS011;45588;51.598;5.618;2022-10-26T13:32:17;6.35;;;2.92;;
59728;SDS011;45588;51.598;5.618;2022-10-26T13:34:43;4.35;;;2.33;;
59728;SDS011;45588;51.598;5.618;2022-10-26T13:37:43;7.97;;;2.90;;
59728;SDS011;45588;51.598;5.618;2022-10-26T13:40:02;7.00;;;3.05;;
59728;SDS011;45588;51.598;5.618;2022-10-26T13:42:32;5.47;;;2.58;;
59728;SDS011;45588;51.598;5.618;2022-10-26T13:45:10;4.75;;;2.53;;
59728;SDS011;45588;51.598;5.618;2022-10-26T13:47:41;5.85;;;2.63;;
59728;SDS011;45588;51.598;5.618;2022-10-26T13:50:12;6.13;;;2.28;;
59728;SDS011;45588;51.598;5.618;2022-10-26T13:52:42;5.22;;;2.35;;
59728;SDS011;45588;51.598;5.618;2022-10-26T13:55:16;8.33;;;2.70;;
59728;SDS011;45588;51.598;5.618;2022-10-26T13:57:48;6.75;;;2.90;;
59728;SDS011;45588;51.598;5.618;2022-10-26T14:00:19;5.40;;;2.25;;
59728;SDS011;45588;51.598;5.618;2022-10-26T14:02:46;6.13;;;2.05;;
59728;SDS011;45588;51.598;5.618;2022-10-26T14:05:13;3.30;;;2.28;;
59728;SDS011;45588;51.598;5.618;2022-10-26T14:07:42;5.82;;;2.60;;
59728;SDS011;45588;51.598;5.618;2022-10-26T14:10:27;4.60;;;2.17;;
59728;SDS011;45588;51.598;5.618;2022-10-26T14:12:59;6.22;;;2.30;;
59728;SDS011;45588;51.598;5.618;2022-10-26T14:15:28;4.93;;;1.77;;
59728;SDS011;45588;51.598;5.618;2022-10-26T14:17:56;6.35;;;2.00;;
59728;SDS011;45588;51.598;5.618;2022-10-26T14:20:23;3.95;;;2.00;;
59728;SDS011;45588;51.598;5.618;2022-10-26T14:22:51;3.55;;;1.90;;
59728;SDS011;45588;51.598;5.618;2022-10-26T14:25:20;4.30;;;2.03;;
59728;SDS011;45588;51.598;5.618;2022-10-26T14:27:46;5.63;;;2.08;;
59728;SDS011;45588;51.598;5.618;2022-10-26T14:30:27;5.10;;;2.00;;
59728;SDS011;45588;51.598;5.618;2022-10-26T14:32:55;4.78;;;1.70;;
59728;SDS011;45588;51.598;5.618;2022-10-26T14:35:22;4.80;;;1.88;;
59728;SDS011;45588;51.598;5.618;2022-10-26T14:37:55;5.40;;;2.00;;
59728;SDS011;45588;51.598;5.618;2022-10-26T14:40:24;4.45;;;1.85;;
59728;SDS011;45588;51.598;5.618;2022-10-26T14:42:53;4.78;;;1.52;;
59728;SDS011;45588;51.598;5.618;2022-10-26T14:45:28;5.95;;;1.67;;
59728;SDS011;45588;51.598;5.618;2022-10-26T14:47:56;5.05;;;1.67;;
59728;SDS011;45588;51.598;5.618;2022-10-26T14:50:23;3.53;;;1.80;;
59728;SDS011;45588;51.598;5.618;2022-10-26T14:52:55;4.43;;;1.95;;
59728;SDS011;45588;51.598;5.618;2022-10-26T14:55:50;3.65;;;1.77;;
59728;SDS011;45588;51.598;5.618;2022-10-26T14:58:19;8.95;;;2.55;;
59728;SDS011;45588;51.598;5.618;2022-10-26T15:01:12;4.32;;;1.75;;
59728;SDS011;45588;51.598;5.618;2022-10-26T15:04:00;3.85;;;1.60;;
59728;SDS011;45588;51.598;5.618;2022-10-26T15:08:56;5.03;;;1.80;;
59728;SDS011;45588;51.598;5.618;2022-10-26T15:11:27;4.22;;;2.00;;
59728;SDS011;45588;51.598;5.618;2022-10-26T15:13:54;3.95;;;1.80;;
59728;SDS011;45588;51.598;5.618;2022-10-26T15:16:21;6.35;;;2.00;;
59728;SDS011;45588;51.598;5.618;2022-10-26T15:18:49;5.45;;;1.90;;
59728;SDS011;45588;51.598;5.618;2022-10-26T15:21:28;5.10;;;1.75;;
59728;SDS011;45588;51.598;5.618;2022-10-26T15:23:56;9.55;;;2.47;;
59728;SDS011;45588;51.598;5.618;2022-10-26T15:26:22;6.78;;;2.05;;
59728;SDS011;45588;51.598;5.618;2022-10-26T15:28:49;7.25;;;2.05;;
59728;SDS011;45588;51.598;5.618;2022-10-26T15:36:16;9.25;;;2.25;;
59728;SDS011;45588;51.598;5.618;2022-10-26T15:38:43;5.30;;;2.70;;
59728;SDS011;45588;51.598;5.618;2022-10-26T15:41:25;7.15;;;2.85;;
59728;SDS011;45588;51.598;5.618;2022-10-26T15:43:54;5.05;;;2.03;;
59728;SDS011;45588;51.598;5.618;2022-10-26T15:46:22;4.60;;;2.40;;
59728;SDS011;45588;51.598;5.618;2022-10-26T15:48:54;4.82;;;2.25;;
59728;SDS011;45588;51.598;5.618;2022-10-26T15:51:21;5.50;;;2.28;;
59728;SDS011;45588;51.598;5.618;2022-10-26T15:53:47;7.88;;;2.72;;
59728;SDS011;45588;51.598;5.618;2022-10-26T15:56:14;5.65;;;2.58;;
59728;SDS011;45588;51.598;5.618;2022-10-26T15:58:41;8.13;;;2.20;;
59728;SDS011;45588;51.598;5.618;2022-10-26T16:01:08;6.93;;;2.72;;
59728;SDS011;45588;51.598;5.618;2022-10-26T16:03:38;8.13;;;2.75;;
59728;SDS011;45588;51.598;5.618;2022-10-26T16:06:03;8.50;;;3.00;;
59728;SDS011;45588;51.598;5.618;2022-10-26T16:08:29;7.28;;;2.85;;
59728;SDS011;45588;51.598;5.618;2022-10-26T16:10:55;6.25;;;2.40;;
59728;SDS011;45588;51.598;5.618;2022-10-26T16:13:21;4.38;;;2.55;;
59728;SDS011;45588;51.598;5.618;2022-10-26T16:15:46;6.38;;;2.42;;
59728;SDS011;45588;51.598;5.618;2022-10-26T16:18:12;5.72;;;2.60;;
59728;SDS011;45588;51.598;5.618;2022-10-26T16:20:38;5.10;;;2.30;;
59728;SDS011;45588;51.598;5.618;2022-10-26T16:23:04;6.60;;;2.90;;
59728;SDS011;45588;51.598;5.618;2022-10-26T16:25:32;6.55;;;3.13;;
59728;SDS011;45588;51.598;5.618;2022-10-26T16:27:59;8.15;;;3.63;;
59728;SDS011;45588;51.598;5.618;2022-10-26T16:30:25;7.18;;;2.92;;
59728;SDS011;45588;51.598;5.618;2022-10-26T16:32:50;6.53;;;2.45;;
59728;SDS011;45588;51.598;5.618;2022-10-26T16:35:16;6.85;;;3.30;;
59728;SDS011;45588;51.598;5.618;2022-10-26T16:37:41;9.63;;;3.08;;
59728;SDS011;45588;51.598;5.618;2022-10-26T16:40:07;4.13;;;2.17;;
59728;SDS011;45588;51.598;5.618;2022-10-26T16:42:33;6.38;;;2.47;;
59728;SDS011;45588;51.598;5.618;2022-10-26T16:44:59;4.53;;;2.10;;